Nevada Mills, Indiana
Current Conditions -  °F | °C
As of 10:55 PM on Sunday 25 Jan 2015 (Local Time) from KANQ Reporting Station
Overcast Overcast  
Wind Chill:   Ceiling: 3900
Heat Index: 19°   Visibility: 10mi
Dew Point:   Wind: 10mph
Humidity: 63%   Direction: 60°ENE
Pressure: 29.89"   Gusts: NA
Location:  41.6594°N, 85.0055°W
Report Text: KANQ 260355Z AUTO 06009KT 10SM OVC039 M07/M13 A2989 RMK
Loading
Personal Weather Stations






























Interactive Weather Map New forecast layout! Learn more

10-Day Weather Forecast

Advertisements
Track Severe Weather on mobile